Time;durP1;ratioP1;P1;durP2;ratioP2;P2;SDS_P1;SDS_P2;PMS_P1;PMS_P2;Temp;Humidity;BMP_temperature;BMP_pressure;BME280_temperature;BME280_humidity;BME280_pressure;Samples;Min_cycle;Max_cycle;Signal;HPM_P1;HPM_P2
2022/07/01 00:02:30;;;;;;;1.30;0.70;;;23.20;64.70;;;;;;10288154;28;20538;-60
2022/07/01 00:07:31;;;;;;;1.10;0.85;;;23.20;64.70;;;;;;10290150;28;20073;-59
2022/07/01 00:12:32;;;;;;;1.58;0.90;;;23.20;64.80;;;;;;10291405;28;20505;-59
2022/07/01 00:17:33;;;;;;;1.30;0.93;;;23.20;64.80;;;;;;10283691;28;20039;-58
2022/07/01 00:22:35;;;;;;;1.98;0.93;;;23.20;64.70;;;;;;10250112;29;20689;-60
2022/07/01 00:27:42;;;;;;;1.17;0.95;;;23.20;64.70;;;;;;10273705;28;20510;-58
2022/07/01 00:32:43;;;;;;;3.60;1.55;;;23.20;64.70;;;;;;10277244;28;20027;-58
2022/07/01 00:37:44;;;;;;;1.15;0.70;;;23.20;64.60;;;;;;10272942;28;20046;-58
2022/07/01 00:42:45;;;;;;;1.65;0.90;;;23.10;64.50;;;;;;10288760;28;20053;-59
2022/07/01 00:47:45;;;;;;;0.80;0.75;;;23.10;64.50;;;;;;10259327;28;20039;-58
2022/07/01 00:52:46;;;;;;;2.17;1.20;;;23.10;64.40;;;;;;10285285;28;20097;-59
2022/07/01 00:57:47;;;;;;;0.73;0.73;;;23.10;64.50;;;;;;10272203;28;20035;-61
2022/07/01 01:02:48;;;;;;;1.05;0.77;;;23.10;64.60;;;;;;10280586;28;20042;-58
2022/07/01 01:07:52;;;;;;;1.30;0.80;;;23.10;64.60;;;;;;10273109;28;20049;-60
2022/07/01 01:12:54;;;;;;;1.50;1.13;;;23.10;64.60;;;;;;10274706;28;20470;-59
2022/07/01 01:17:55;;;;;;;2.00;1.00;;;23.10;64.60;;;;;;10287122;28;20113;-59
2022/07/01 01:22:56;;;;;;;1.85;1.27;;;23.10;64.60;;;;;;10287179;28;20500;-59
2022/07/01 01:27:57;;;;;;;2.08;0.90;;;23.10;64.50;;;;;;10286670;28;20034;-58
2022/07/01 01:32:58;;;;;;;2.35;1.63;;;23.10;64.50;;;;;;10273881;28;20035;-59
2022/07/01 01:37:58;;;;;;;2.33;1.50;;;23.10;64.40;;;;;;10269040;28;20050;-58
2022/07/01 01:42:59;;;;;;;2.40;1.58;;;23.10;64.40;;;;;;10286311;28;20027;-59
2022/07/01 01:48:00;;;;;;;1.98;1.48;;;23.10;64.50;;;;;;10266896;28;20544;-58
2022/07/01 01:53:01;;;;;;;2.88;2.45;;;23.00;64.50;;;;;;10271771;28;20035;-59
2022/07/01 01:58:01;;;;;;;2.80;2.42;;;23.00;64.40;;;;;;10271190;28;20031;-58
2022/07/01 02:03:02;;;;;;;2.95;2.03;;;23.00;64.40;;;;;;10286195;28;20121;-59
2022/07/01 02:08:04;;;;;;;3.83;2.80;;;23.00;64.20;;;;;;10282281;28;20030;-60
2022/07/01 02:13:05;;;;;;;3.95;3.42;;;23.00;64.10;;;;;;10285809;28;20093;-59
2022/07/01 02:18:06;;;;;;;4.20;2.70;;;23.00;64.10;;;;;;10285691;28;20073;-60
2022/07/01 02:23:08;;;;;;;4.10;3.08;;;23.00;64.20;;;;;;10287145;28;20489;-58
2022/07/01 02:28:09;;;;;;;4.05;3.17;;;23.00;64.20;;;;;;10285355;28;20035;-58
2022/07/01 02:33:10;;;;;;;3.13;2.83;;;23.00;64.30;;;;;;10269737;28;20482;-59
2022/07/01 02:38:11;;;;;;;4.55;4.00;;;23.00;64.20;;;;;;10272864;28;20202;-59
2022/07/01 02:43:12;;;;;;;4.47;3.45;;;23.00;64.20;;;;;;10286689;28;20443;-59
2022/07/01 02:48:13;;;;;;;6.03;4.80;;;23.00;64.10;;;;;;10281989;28;20042;-58
2022/07/01 02:53:14;;;;;;;5.43;4.13;;;22.90;64.00;;;;;;10263767;28;20046;-61
2022/07/01 02:58:14;;;;;;;4.80;4.28;;;22.90;64.00;;;;;;10276540;28;20039;-60
2022/07/01 03:03:15;;;;;;;5.30;4.00;;;22.90;64.00;;;;;;10272702;28;20085;-59
2022/07/01 03:08:16;;;;;;;5.28;4.20;;;22.90;64.10;;;;;;10292397;28;20121;-59
2022/07/01 03:13:16;;;;;;;5.05;4.43;;;22.90;64.10;;;;;;10291842;28;20042;-59
2022/07/01 03:18:17;;;;;;;5.65;5.15;;;22.90;64.10;;;;;;10292212;28;20035;-58
2022/07/01 03:23:18;;;;;;;5.35;4.85;;;22.90;64.00;;;;;;10266113;28;20028;-58
2022/07/01 03:28:18;;;;;;;6.57;5.88;;;22.90;64.00;;;;;;10276554;28;20141;-58
2022/07/01 03:33:19;;;;;;;7.35;6.65;;;22.90;63.90;;;;;;10274552;28;20031;-58
2022/07/01 03:38:20;;;;;;;6.15;5.55;;;22.80;63.80;;;;;;10272183;28;20729;-59
2022/07/01 03:43:20;;;;;;;7.35;6.57;;;22.90;63.90;;;;;;10290815;28;20023;-60
2022/07/01 03:48:22;;;;;;;6.57;5.88;;;22.80;63.60;;;;;;10280833;28;20093;-62
2022/07/01 03:58:41;;;;;;;6.10;5.38;;;22.80;63.80;;;;;;10292223;28;20550;-60
2022/07/01 04:03:42;;;;;;;8.30;7.50;;;22.80;63.70;;;;;;10291432;28;20050;-59
2022/07/01 04:08:43;;;;;;;7.07;6.28;;;22.80;63.50;;;;;;10286801;28;20044;-59
2022/07/01 04:13:49;;;;;;;6.07;5.47;;;22.80;63.70;;;;;;10270380;28;20109;-58
2022/07/01 04:18:50;;;;;;;6.78;6.18;;;22.80;63.70;;;;;;10284154;28;20039;-58
2022/07/01 04:23:51;;;;;;;7.53;6.72;;;22.80;63.80;;;;;;10287573;28;20033;-59
2022/07/01 04:28:54;;;;;;;7.38;6.28;;;22.80;63.70;;;;;;10289597;28;20027;-59
2022/07/01 04:33:55;;;;;;;8.38;7.57;;;22.80;63.90;;;;;;10268455;28;20039;-58
2022/07/01 04:38:56;;;;;;;10.18;7.72;;;22.80;63.80;;;;;;10268253;28;20463;-60
2022/07/01 04:43:57;;;;;;;7.22;6.53;;;22.70;63.60;;;;;;10268363;28;20109;-58
2022/07/01 04:48:58;;;;;;;8.00;7.30;;;22.80;64.00;;;;;;10279818;28;20543;-59
2022/07/01 04:53:58;;;;;;;7.05;6.35;;;22.70;64.50;;;;;;10260529;28;20038;-58
2022/07/01 04:59:01;;;;;;;12.88;8.27;;;22.70;63.80;;;;;;10261125;28;20464;-60
2022/07/01 05:04:02;;;;;;;10.93;8.88;;;22.80;65.20;;;;;;10252545;28;20043;-58
2022/07/01 05:09:03;;;;;;;12.52;7.47;;;22.80;65.10;;;;;;10273389;28;20027;-59
2022/07/01 05:14:03;;;;;;;10.32;8.00;;;22.80;65.20;;;;;;10267661;28;20026;-61
2022/07/01 05:24:28;;;;;;;17.13;10.52;;;22.80;65.70;;;;;;10278589;28;20047;-59
2022/07/01 05:29:28;;;;;;;10.70;8.93;;;22.80;65.90;;;;;;10275568;28;20403;-60
2022/07/01 05:34:29;;;;;;;12.80;9.38;;;22.80;65.70;;;;;;10274431;28;20031;-60
2022/07/01 05:39:30;;;;;;;23.13;9.95;;;22.90;66.00;;;;;;10272508;28;20053;-59
2022/07/01 05:44:31;;;;;;;19.08;10.18;;;22.80;65.80;;;;;;10270666;28;20035;-58
2022/07/01 05:49:31;;;;;;;27.45;9.60;;;22.80;65.70;;;;;;10270512;28;20071;-60
2022/07/01 05:54:32;;;;;;;26.30;10.73;;;22.80;65.40;;;;;;10257828;28;20715;-60
2022/07/01 05:59:33;;;;;;;39.35;11.55;;;22.80;65.30;;;;;;10268350;28;20045;-60
2022/07/01 06:04:33;;;;;;;43.05;12.82;;;22.90;65.50;;;;;;10275633;28;20114;-59
2022/07/01 06:09:34;;;;;;;33.03;13.35;;;22.90;65.70;;;;;;10286736;28;20042;-59
2022/07/01 06:14:37;;;;;;;36.13;11.38;;;22.80;65.70;;;;;;10253109;28;20426;-58
2022/07/01 06:19:38;;;;;;;45.83;14.55;;;22.80;65.60;;;;;;10243725;28;20372;-62
2022/07/01 06:24:39;;;;;;;24.95;11.38;;;22.90;66.00;;;;;;10257891;28;20034;-60
2022/07/01 06:29:39;;;;;;;23.58;11.07;;;22.80;65.70;;;;;;10267629;28;20617;-61
2022/07/01 06:34:40;;;;;;;18.75;9.65;;;22.80;65.60;;;;;;10273371;28;20031;-61
2022/07/01 06:39:41;;;;;;;31.02;12.57;;;22.80;65.40;;;;;;10280473;28;20127;-60
2022/07/01 06:44:42;;;;;;;29.33;12.77;;;22.80;65.80;;;;;;10283141;28;20081;-61
2022/07/01 06:49:42;;;;;;;23.23;11.50;;;22.80;66.50;;;;;;10278503;28;20410;-62
2022/07/01 06:54:46;;;;;;;30.95;11.27;;;22.80;66.50;;;;;;10255100;28;20475;-61
2022/07/01 06:59:48;;;;;;;23.20;11.63;;;22.80;66.20;;;;;;10269669;28;20042;-61
2022/07/01 07:04:49;;;;;;;23.20;11.68;;;22.80;66.30;;;;;;10286263;28;20019;-62
2022/07/01 07:09:50;;;;;;;27.52;12.88;;;22.80;65.70;;;;;;10276595;28;20027;-62
2022/07/01 07:14:50;;;;;;;20.90;10.75;;;22.80;66.00;;;;;;10281026;28;20636;-59
2022/07/01 07:19:51;;;;;;;27.10;12.48;;;22.80;65.10;;;;;;10284262;28;20034;-60
2022/07/01 07:24:52;;;;;;;20.42;11.25;;;22.80;65.90;;;;;;10285159;28;20034;-59
2022/07/01 07:29:53;;;;;;;17.55;10.23;;;22.80;66.10;;;;;;10267215;28;20054;-61
2022/07/01 07:34:53;;;;;;;25.67;11.02;;;22.80;66.20;;;;;;10263214;28;20035;-61
2022/07/01 07:39:54;;;;;;;25.60;11.43;;;22.80;65.20;;;;;;10287567;28;20090;-62
2022/07/01 07:44:55;;;;;;;26.45;11.02;;;22.80;65.80;;;;;;10292432;28;20034;-58
2022/07/01 07:49:56;;;;;;;22.00;12.50;;;22.80;65.60;;;;;;10274537;28;20387;-61
2022/07/01 07:54:56;;;;;;;18.67;10.10;;;22.80;66.10;;;;;;10251323;29;20130;-61
2022/07/01 07:59:57;;;;;;;20.98;9.77;;;22.80;66.00;;;;;;10252098;28;20038;-60
2022/07/01 08:04:58;;;;;;;18.23;9.25;;;22.80;65.80;;;;;;10270333;28;20035;-59
2022/07/01 08:09:59;;;;;;;19.73;9.93;;;22.80;66.10;;;;;;10291849;28;20109;-52
2022/07/01 08:14:59;;;;;;;16.45;9.48;;;22.80;66.00;;;;;;10290108;28;20049;-59
2022/07/01 08:20:00;;;;;;;18.77;9.35;;;22.80;64.80;;;;;;10273822;28;20470;-59
2022/07/01 08:25:03;;;;;;;15.60;8.80;;;22.80;64.90;;;;;;10289713;28;20034;-58
2022/07/01 08:30:05;;;;;;;17.08;8.98;;;22.80;64.90;;;;;;10284051;28;20386;-59
2022/07/01 08:35:06;;;;;;;18.60;9.15;;;22.80;65.00;;;;;;10258970;28;20607;-59
2022/07/01 08:40:07;;;;;;;17.33;8.52;;;22.80;66.40;;;;;;10254737;28;20576;-59
2022/07/01 08:45:09;;;;;;;15.23;7.88;;;22.80;67.40;;;;;;10263826;28;20556;-60
2022/07/01 08:50:09;;;;;;;15.32;7.63;;;22.80;66.00;;;;;;10269022;28;20037;-59
2022/07/01 08:55:10;;;;;;;19.35;7.95;;;22.80;65.50;;;;;;10265410;28;20035;-60
2022/07/01 09:00:11;;;;;;;13.77;7.45;;;22.80;66.00;;;;;;10259815;28;20030;-58
2022/07/01 09:05:12;;;;;;;12.25;7.97;;;22.80;65.90;;;;;;10288128;28;20041;-59
2022/07/01 09:10:18;;;;;;;15.52;7.72;;;22.90;65.60;;;;;;10287800;28;20497;-59
2022/07/01 09:15:30;;;;;;;18.67;7.68;;;22.90;65.40;;;;;;10272988;28;20042;-59
2022/07/01 09:20:35;;;;;;;12.02;6.40;;;22.90;65.30;;;;;;10252170;28;20039;-59
2022/07/01 09:25:43;;;;;;;8.82;5.47;;;22.90;65.20;;;;;;10288080;28;20549;-59
2022/07/01 09:30:51;;;;;;;11.70;5.67;;;22.90;65.20;;;;;;10271261;28;20074;-59
2022/07/01 09:35:53;;;;;;;8.75;5.65;;;22.90;64.80;;;;;;10251895;28;20422;-60
2022/07/01 09:40:57;;;;;;;10.07;5.35;;;22.90;64.90;;;;;;10230773;29;20032;-59
2022/07/01 09:46:10;;;;;;;8.55;5.10;;;22.90;64.40;;;;;;10248177;28;20467;-60
2022/07/01 09:51:13;;;;;;;11.10;6.20;;;22.90;64.50;;;;;;10273265;28;20092;-58
2022/07/01 09:56:14;;;;;;;10.60;5.78;;;22.90;64.30;;;;;;10286840;28;20113;-58
2022/07/01 10:01:15;;;;;;;6.57;4.50;;;22.90;64.00;;;;;;10267317;28;20054;-59
2022/07/01 10:06:46;;;;;;;8.90;5.43;;;22.90;63.70;;;;;;10246066;29;20031;-58
2022/07/01 10:12:30;;;;;;;13.43;5.28;;;22.90;63.50;;;;;;10258562;28;20595;-58
2022/07/01 10:17:35;;;;;;;7.63;4.53;;;22.90;63.50;;;;;;10255090;28;20031;-59
2022/07/01 10:22:38;;;;;;;7.03;4.22;;;22.90;63.90;;;;;;10280959;28;20066;-59
2022/07/01 10:27:38;;;;;;;6.45;4.05;;;22.90;63.40;;;;;;10285540;28;20022;-60
2022/07/01 10:32:51;;;;;;;6.97;3.70;;;23.00;63.60;;;;;;10285771;28;20035;-56
2022/07/01 10:38:01;;;;;;;5.57;3.70;;;23.00;63.20;;;;;;10284367;28;20035;-58
2022/07/01 10:43:02;;;;;;;6.00;4.57;;;23.00;63.10;;;;;;10285524;28;20031;-60
2022/07/01 10:48:25;;;;;;;6.93;4.18;;;23.00;63.40;;;;;;10284678;28;20035;-58
2022/07/01 10:53:46;;;;;;;9.75;3.53;;;23.00;63.10;;;;;;10273173;28;20183;-59
2022/07/01 10:58:47;;;;;;;6.85;3.33;;;23.00;63.20;;;;;;10284927;28;20031;-59
2022/07/01 11:03:48;;;;;;;5.40;3.22;;;23.00;63.10;;;;;;10286159;28;20027;-59
2022/07/01 11:08:49;;;;;;;8.95;3.75;;;23.00;63.10;;;;;;10285947;28;20113;-60
2022/07/01 11:13:50;;;;;;;8.57;3.63;;;23.10;63.40;;;;;;10286660;28;20122;-60
2022/07/01 11:18:52;;;;;;;7.65;3.30;;;23.10;63.60;;;;;;10293385;28;20035;-59
2022/07/01 11:23:54;;;;;;;5.70;3.45;;;23.10;63.70;;;;;;10253839;28;20607;-58
2022/07/01 11:28:55;;;;;;;6.80;2.92;;;23.10;63.50;;;;;;10252289;28;20038;-59
2022/07/01 11:33:56;;;;;;;6.38;3.08;;;23.10;63.40;;;;;;10269034;28;20121;-59
2022/07/01 11:44:45;;;;;;;6.63;3.00;;;23.10;62.00;;;;;;10267668;28;20043;-60
2022/07/01 11:49:49;;;;;;;8.60;3.22;;;23.10;62.10;;;;;;10275726;28;20035;-61
2022/07/01 11:54:53;;;;;;;11.27;2.88;;;23.20;62.40;;;;;;10260137;28;20374;-61
2022/07/01 11:59:56;;;;;;;7.88;2.67;;;23.20;62.40;;;;;;10290489;28;20031;-61
2022/07/01 12:04:59;;;;;;;14.90;3.03;;;23.20;62.40;;;;;;10290781;28;20030;-62
2022/07/01 12:10:01;;;;;;;6.85;2.92;;;23.20;62.20;;;;;;10279581;28;20398;-62
2022/07/01 12:15:02;;;;;;;6.32;2.80;;;23.20;62.40;;;;;;10290053;28;20026;-58
2022/07/01 12:20:03;;;;;;;23.27;4.72;;;23.20;62.30;;;;;;10287509;28;20027;-60
2022/07/01 12:25:15;;;;;;;11.10;3.13;;;23.20;62.80;;;;;;10289040;28;20031;-60
2022/07/01 12:30:24;;;;;;;14.73;3.05;;;23.30;62.90;;;;;;10289163;28;20537;-60
2022/07/01 12:35:34;;;;;;;;;;;23.40;62.90;;;;;;10271549;28;20059;-60
2022/07/01 12:40:34;;;;;;;;;;;23.40;62.80;;;;;;10283155;28;19926;-60
2022/07/01 12:45:39;;;;;;;10.27;2.78;;;23.40;63.20;;;;;;10280079;28;19976;-59
2022/07/01 12:50:40;;;;;;;8.48;3.45;;;23.40;63.50;;;;;;10272564;28;20031;-59
2022/07/01 12:55:53;;;;;;;12.98;3.45;;;23.40;63.30;;;;;;10275215;28;20055;-61
2022/07/01 13:00:57;;;;;;;10.38;2.83;;;23.40;63.30;;;;;;10252258;28;20042;-59
2022/07/01 13:05:59;;;;;;;8.38;3.20;;;23.40;63.10;;;;;;10288374;28;20107;-61
2022/07/01 13:11:00;;;;;;;8.25;2.58;;;23.30;62.80;;;;;;10287805;28;20114;-60
2022/07/01 13:16:00;;;;;;;4.85;2.55;;;23.30;62.80;;;;;;10289063;28;20022;-60
2022/07/01 13:21:01;;;;;;;10.00;2.78;;;23.30;63.00;;;;;;10287468;28;20066;-60
2022/07/01 13:26:02;;;;;;;10.25;3.47;;;23.30;62.80;;;;;;10287253;28;20470;-60
2022/07/01 13:31:02;;;;;;;7.95;2.72;;;23.30;62.60;;;;;;10287641;28;20740;-59
2022/07/01 13:36:03;;;;;;;10.13;3.35;;;23.30;62.60;;;;;;10286965;28;20046;-59
2022/07/01 13:41:04;;;;;;;5.10;2.42;;;23.30;62.50;;;;;;10265436;28;20045;-60
2022/07/01 13:46:05;;;;;;;10.52;2.83;;;23.30;62.50;;;;;;10288032;28;20114;-60
2022/07/01 13:51:06;;;;;;;8.25;3.67;;;23.30;62.40;;;;;;10267265;28;20075;-60
2022/07/01 13:56:06;;;;;;;5.50;2.10;;;23.20;62.50;;;;;;10286529;28;20027;-60
2022/07/01 14:01:07;;;;;;;8.00;2.78;;;23.30;62.50;;;;;;10286079;28;20127;-59
2022/07/01 14:06:08;;;;;;;6.75;2.30;;;23.30;62.60;;;;;;10285726;28;20034;-58
2022/07/01 14:11:09;;;;;;;11.25;2.88;;;23.30;63.00;;;;;;10274035;28;20254;-59
2022/07/01 14:16:10;;;;;;;13.25;3.58;;;23.20;63.40;;;;;;10281524;28;20023;-57
2022/07/01 14:21:11;;;;;;;14.02;3.00;;;23.20;63.50;;;;;;10290076;28;20390;-56
2022/07/01 14:26:13;;;;;;;11.55;3.10;;;23.20;64.10;;;;;;10257842;28;20023;-59
2022/07/01 14:31:13;;;;;;;12.80;3.45;;;23.20;64.20;;;;;;10261088;28;20059;-57
2022/07/01 14:36:14;;;;;;;18.40;3.85;;;23.20;63.70;;;;;;10267265;28;20047;-57
2022/07/01 14:41:15;;;;;;;27.88;4.30;;;23.30;63.80;;;;;;10254132;28;20482;-59
2022/07/01 14:46:16;;;;;;;19.30;4.22;;;23.30;64.40;;;;;;10248544;28;20122;-60
2022/07/01 14:51:17;;;;;;;30.65;5.22;;;23.30;64.20;;;;;;10288404;28;20042;-59
2022/07/01 14:56:18;;;;;;;18.63;3.42;;;23.30;64.20;;;;;;10282192;28;20371;-58
2022/07/01 15:01:19;;;;;;;8.55;3.17;;;23.30;64.20;;;;;;10278049;28;20117;-60
2022/07/01 15:06:19;;;;;;;13.13;2.30;;;23.30;64.20;;;;;;10278401;28;20097;-58
2022/07/01 15:11:22;;;;;;;12.55;2.90;;;23.20;64.20;;;;;;10282606;28;20022;-57
2022/07/01 15:16:24;;;;;;;25.40;4.22;;;23.20;64.30;;;;;;10265033;28;20417;-57
2022/07/01 15:21:25;;;;;;;28.60;4.63;;;23.20;64.40;;;;;;10275403;28;20023;-57
2022/07/01 15:26:26;;;;;;;39.25;5.25;;;23.30;64.60;;;;;;10289156;28;20566;-53
2022/07/01 15:31:27;;;;;;;25.45;4.03;;;23.20;64.70;;;;;;10285449;28;20042;-55
2022/07/01 15:36:27;;;;;;;44.22;6.32;;;23.20;64.30;;;;;;10265400;28;20039;-54
2022/07/01 15:41:28;;;;;;;26.92;5.28;;;23.20;64.50;;;;;;10278975;28;20749;-57
2022/07/01 15:46:29;;;;;;;27.10;4.18;;;23.20;64.10;;;;;;10291493;28;20359;-58
2022/07/01 15:51:30;;;;;;;20.30;4.80;;;23.20;63.30;;;;;;10292021;28;20038;-55
2022/07/01 15:56:31;;;;;;;27.25;4.88;;;23.20;63.30;;;;;;10286002;28;20571;-56
2022/07/01 16:01:32;;;;;;;27.33;5.15;;;23.20;63.20;;;;;;10251850;28;20027;-52
2022/07/01 16:06:34;;;;;;;25.17;5.78;;;23.10;63.00;;;;;;10290721;28;20502;-55
2022/07/01 16:11:35;;;;;;;31.40;5.10;;;23.10;62.50;;;;;;10290305;28;20018;-56
2022/07/01 16:16:38;;;;;;;34.45;4.65;;;23.10;62.10;;;;;;10281036;28;20109;-55
2022/07/01 16:21:41;;;;;;;57.13;7.18;;;23.10;61.50;;;;;;10289509;28;20033;-56
2022/07/01 16:26:42;;;;;;;25.23;3.85;;;23.10;61.50;;;;;;10289553;28;20034;-56
2022/07/01 16:31:45;;;;;;;19.75;4.18;;;23.10;60.50;;;;;;10290277;28;20031;-53
2022/07/01 16:36:52;;;;;;;23.77;4.20;;;23.20;63.20;;;;;;10263928;28;20047;-54
2022/07/01 16:42:05;;;;;;;22.08;4.57;;;23.30;62.90;;;;;;10290179;28;20039;-55
2022/07/01 16:47:06;;;;;;;18.83;3.30;;;23.30;62.70;;;;;;10289028;28;20035;-56
2022/07/01 16:52:14;;;;;;;20.50;4.50;;;23.20;62.70;;;;;;10267446;28;20035;-54
2022/07/01 16:57:17;;;;;;;16.20;4.15;;;23.30;62.90;;;;;;10268250;28;20042;-53
2022/07/01 17:02:20;;;;;;;13.07;3.60;;;23.20;63.00;;;;;;10286997;28;20038;-55
2022/07/01 17:07:21;;;;;;;9.60;2.58;;;23.20;63.00;;;;;;10289425;28;20596;-56
2022/07/01 17:12:22;;;;;;;7.13;2.55;;;23.10;63.00;;;;;;10288058;28;20043;-55
2022/07/01 17:17:24;;;;;;;11.18;2.60;;;23.10;62.80;;;;;;10288959;28;20035;-53
2022/07/01 17:22:43;;;;;;;7.38;2.72;;;23.10;62.90;;;;;;10286545;28;20045;-55
2022/07/01 17:28:30;;;;;;;9.57;2.58;;;23.10;62.70;;;;;;10270883;28;20030;-53
2022/07/01 17:33:33;;;;;;;7.70;2.80;;;23.10;63.10;;;;;;10272173;28;20042;-53
2022/07/01 17:39:09;;;;;;;11.88;2.78;;;23.10;63.10;;;;;;10483002;28;20491;-55
2022/07/01 17:44:13;;;;;;;7.05;2.28;;;23.10;63.10;;;;;;10443327;28;20124;-53
2022/07/01 17:49:16;;;;;;;6.35;2.05;;;23.10;63.00;;;;;;10453128;28;20028;-54
2022/07/01 17:54:20;;;;;;;6.05;2.63;;;23.10;63.00;;;;;;10432648;28;20036;-55
2022/07/01 17:59:22;;;;;;;5.70;1.80;;;23.10;63.00;;;;;;10443009;28;20068;-54
2022/07/01 18:04:28;;;;;;;3.95;1.75;;;23.10;63.00;;;;;;10441715;28;20029;-54
2022/07/01 18:09:28;;;;;;;4.20;2.38;;;23.10;63.10;;;;;;10425098;28;20083;-53
2022/07/01 18:15:05;;;;;;;4.00;1.90;;;23.00;63.20;;;;;;10416932;28;20037;-53
2022/07/01 18:20:11;;;;;;;6.60;1.95;;;23.00;63.10;;;;;;10442874;28;20037;-55
2022/07/01 18:25:23;;;;;;;8.18;2.25;;;23.00;63.30;;;;;;10426940;28;20372;-55
2022/07/01 18:30:29;;;;;;;5.90;1.73;;;23.00;63.40;;;;;;10419323;28;20108;-55
2022/07/01 18:35:33;;;;;;;6.25;1.92;;;23.00;63.40;;;;;;10415216;28;20044;-53
2022/07/01 18:40:36;;;;;;;4.65;1.80;;;23.00;63.20;;;;;;10410923;28;20036;-55
2022/07/01 18:45:37;;;;;;;5.32;1.50;;;23.00;63.30;;;;;;10416077;28;20584;-53
2022/07/01 18:50:38;;;;;;;6.18;2.10;;;23.00;63.40;;;;;;10399897;28;20030;-53
2022/07/01 18:55:39;;;;;;;4.15;1.45;;;23.00;63.20;;;;;;10405443;28;20388;-55
2022/07/01 19:00:39;;;;;;;4.75;1.50;;;22.90;63.10;;;;;;10400667;28;20028;-54
2022/07/01 19:05:40;;;;;;;3.28;1.40;;;23.00;63.10;;;;;;10392250;28;20088;-54
2022/07/01 19:10:41;;;;;;;2.67;1.48;;;23.00;63.10;;;;;;10399563;28;20037;-53
2022/07/01 19:15:42;;;;;;;4.60;1.75;;;23.00;63.10;;;;;;10376044;28;20137;-53
2022/07/01 19:20:43;;;;;;;2.97;1.63;;;22.90;63.10;;;;;;10381265;28;20033;-52
2022/07/01 19:25:45;;;;;;;2.80;1.58;;;23.00;63.10;;;;;;10390534;28;20029;-56
2022/07/01 19:30:45;;;;;;;6.45;1.80;;;22.90;63.10;;;;;;10387154;28;20048;-50
2022/07/01 19:35:46;;;;;;;5.07;2.08;;;22.90;66.60;;;;;;10382416;28;20040;-53
2022/07/01 19:40:47;;;;;;;4.05;1.67;;;23.00;66.40;;;;;;10372752;28;20026;-53
2022/07/01 19:45:48;;;;;;;5.15;1.50;;;23.00;67.00;;;;;;10382045;28;20489;-53
2022/07/01 19:50:48;;;;;;;2.85;1.67;;;23.00;65.40;;;;;;10412565;28;20025;-50
2022/07/01 19:55:49;;;;;;;5.00;1.70;;;23.00;65.90;;;;;;10392495;28;20141;-48
2022/07/01 20:00:50;;;;;;;4.53;1.52;;;23.00;66.40;;;;;;10384392;28;20038;-52
2022/07/01 20:05:51;;;;;;;5.15;1.88;;;23.00;65.60;;;;;;10369058;28;20029;-54
2022/07/01 20:10:52;;;;;;;2.90;1.40;;;22.90;65.20;;;;;;10374567;28;20034;-54
2022/07/01 20:15:52;;;;;;;4.53;1.75;;;22.90;65.10;;;;;;10383293;28;20030;-53
2022/07/01 20:20:54;;;;;;;1.85;1.17;;;22.90;64.90;;;;;;10384414;28;20033;-55
2022/07/01 20:25:55;;;;;;;2.78;1.55;;;22.90;64.70;;;;;;10375406;28;20621;-54
2022/07/01 20:30:56;;;;;;;5.15;1.83;;;22.90;64.60;;;;;;10377268;28;20045;-53
2022/07/01 20:35:57;;;;;;;2.58;1.00;;;22.90;64.60;;;;;;10397955;28;20076;-53
2022/07/01 20:40:58;;;;;;;1.80;1.10;;;22.90;64.40;;;;;;10406434;28;20129;-52
2022/07/01 20:45:58;;;;;;;2.60;1.48;;;22.90;64.30;;;;;;10390123;28;20033;-55
2022/07/01 20:51:02;;;;;;;1.30;0.90;;;22.90;64.30;;;;;;10389064;28;20033;-51
2022/07/01 20:56:03;;;;;;;3.08;1.23;;;22.90;64.20;;;;;;10389909;28;20021;-52
2022/07/01 21:01:04;;;;;;;2.05;1.17;;;22.90;64.00;;;;;;10375622;28;20127;-52
2022/07/01 21:06:05;;;;;;;1.80;0.80;;;22.90;64.00;;;;;;10366741;28;20116;-53
2022/07/01 21:11:05;;;;;;;4.10;1.17;;;22.90;64.00;;;;;;10366967;28;20034;-53
2022/07/01 21:16:06;;;;;;;1.70;0.98;;;22.90;64.00;;;;;;10367195;28;20095;-53
2022/07/01 21:21:07;;;;;;;2.08;1.50;;;22.90;63.90;;;;;;10366390;28;20577;-53
2022/07/01 21:26:08;;;;;;;1.35;0.63;;;22.80;63.70;;;;;;10367518;28;20033;-53
2022/07/01 21:31:09;;;;;;;1.15;0.88;;;22.80;63.70;;;;;;10399530;28;20044;-53
2022/07/01 21:36:09;;;;;;;2.92;0.90;;;22.80;63.60;;;;;;10406819;28;20128;-53
2022/07/01 21:41:12;;;;;;;1.63;0.98;;;22.80;63.60;;;;;;10381689;28;20040;-54
2022/07/01 21:46:13;;;;;;;1.75;1.17;;;22.80;63.60;;;;;;10362937;28;20033;-53
2022/07/01 21:51:14;;;;;;;1.88;1.27;;;22.80;63.40;;;;;;10388652;28;20038;-55
2022/07/01 21:56:16;;;;;;;2.30;1.23;;;22.80;63.40;;;;;;10395059;28;20041;-53
2022/07/01 22:01:18;;;;;;;0.85;0.77;;;22.80;63.40;;;;;;10379441;28;20030;-54
2022/07/01 22:11:25;;;;;;;1.17;0.60;;;22.80;63.20;;;;;;10406534;28;20489;-53
2022/07/01 22:16:32;;;;;;;1.92;1.00;;;22.80;63.20;;;;;;10369860;28;20042;-54
2022/07/01 22:21:38;;;;;;;1.20;0.70;;;22.80;63.10;;;;;;10378847;28;20436;-52
2022/07/01 22:26:39;;;;;;;1.33;1.00;;;22.80;63.10;;;;;;10400584;28;20422;-54
2022/07/01 22:31:41;;;;;;;1.05;0.80;;;22.80;63.10;;;;;;10390492;28;20040;-53
2022/07/01 22:36:45;;;;;;;1.52;1.00;;;22.80;62.90;;;;;;10368906;28;20041;-53
2022/07/01 22:41:48;;;;;;;1.58;0.93;;;22.80;62.90;;;;;;10360808;28;20096;-53
2022/07/01 22:47:10;;;;;;;1.00;0.70;;;22.70;62.80;;;;;;10371892;28;20057;-54
2022/07/01 22:52:22;;;;;;;1.67;1.15;;;22.70;62.70;;;;;;10418749;28;20124;-51
2022/07/01 22:57:54;;;;;;;2.55;0.90;;;22.70;62.70;;;;;;10385562;28;20026;-54
2022/07/01 23:02:59;;;;;;;1.40;0.80;;;22.70;62.60;;;;;;10388605;28;20141;-53
2022/07/01 23:08:01;;;;;;;1.50;1.10;;;22.80;62.60;;;;;;10370801;28;20171;-54
2022/07/01 23:13:10;;;;;;;1.67;1.10;;;22.70;62.60;;;;;;10405142;28;20029;-51
2022/07/01 23:18:13;;;;;;;1.45;1.08;;;22.70;62.60;;;;;;10412559;28;20040;-54
2022/07/01 23:23:18;;;;;;;2.45;1.00;;;22.70;62.40;;;;;;10384467;28;20025;-53
2022/07/01 23:28:20;;;;;;;1.65;1.17;;;22.70;62.30;;;;;;10412111;28;20389;-52
2022/07/01 23:33:22;;;;;;;1.92;1.27;;;22.70;62.30;;;;;;10406564;28;20103;-54
2022/07/01 23:38:23;;;;;;;1.30;0.90;;;22.70;62.10;;;;;;10392360;28;20070;-54
2022/07/01 23:43:24;;;;;;;1.13;1.02;;;22.70;62.10;;;;;;10382582;28;20438;-54
2022/07/01 23:48:24;;;;;;;2.15;1.23;;;22.70;62.10;;;;;;10379783;28;20126;-53
2022/07/01 23:53:25;;;;;;;1.10;0.85;;;22.70;62.20;;;;;;10402164;28;20110;-57
2022/07/01 23:58:27;;;;;;;1.98;1.20;;;22.60;62.10;;;;;;10392919;28;20063;-56
